Time;durP1;ratioP1;P1;durP2;ratioP2;P2;SDS_P1;SDS_P2;PMS_P1;PMS_P2;Temp;Humidity;BMP_temperature;BMP_pressure;BME280_temperature;BME280_humidity;BME280_pressure;Samples;Min_cycle;Max_cycle;Signal;HPM_P1;HPM_P2
2023/05/09 00:02:46;;;;;;;15.37;13.77;;;;;;;16.94;86.92;99415.34;7418138;39;20264;31
2023/05/09 00:08:17;;;;;;;14.25;12.75;;;;;;;16.92;86.72;99411.16;7457067;39;20343;31
2023/05/09 00:18:54;;;;;;;15.20;13.40;;;;;;;16.95;86.32;99416.19;7460364;39;20312;31
2023/05/09 00:29:34;;;;;;;18.33;14.83;;;;;;;16.81;86.40;99396.22;7473260;38;20351;31
2023/05/09 00:40:10;;;;;;;17.10;12.95;;;;;;;16.76;86.17;99392.44;7440021;39;20783;31
2023/05/09 00:45:41;;;;;;;15.25;13.45;;;;;;;16.66;86.92;99387.34;7387715;39;20389;31
2023/05/09 00:51:13;;;;;;;15.87;13.47;;;;;;;16.51;86.87;99389.31;7406465;39;20239;31
2023/05/09 00:56:45;;;;;;;20.60;13.70;;;;;;;16.50;86.53;99385.75;7234677;39;21113;31
2023/05/09 01:02:18;;;;;;;14.70;13.20;;;;;;;16.57;86.40;99373.06;7392849;39;21319;31
2023/05/09 01:07:53;;;;;;;14.55;12.70;;;;;;;16.54;86.22;99359.81;7448599;38;20258;31
2023/05/09 01:13:24;;;;;;;18.90;12.03;;;;;;;16.55;85.54;99355.22;7378764;39;20392;31
2023/05/09 01:18:58;;;;;;;14.20;12.80;;;;;;;16.46;86.24;99362.69;7378454;39;21317;31
2023/05/09 01:24:22;;;;;;;13.93;12.40;;;;;;;16.37;86.10;99355.72;7357642;39;20253;31
2023/05/09 01:29:58;;;;;;;15.43;13.93;;;;;;;16.24;85.79;99351.06;7359799;39;20259;31
2023/05/09 01:35:33;;;;;;;18.00;12.60;;;;;;;16.18;85.82;99346.44;7336263;39;21288;31
2023/05/09 01:46:11;;;;;;;15.67;13.30;;;;;;;15.98;86.52;99337.25;7379940;39;20341;31
2023/05/09 01:51:46;;;;;;;16.50;13.40;;;;;;;16.10;86.61;99332.94;7384711;39;20235;31
2023/05/09 01:57:18;;;;;;;15.77;13.33;;;;;;;15.83;86.81;99330.25;7400862;39;20388;31
2023/05/09 02:03:19;;;;;;;15.87;14.27;;;;;;;15.78;87.08;99328.97;7403324;39;21219;31
2023/05/09 02:08:53;;;;;;;16.05;13.20;;;;;;;15.85;86.54;99323.56;7368323;39;20241;31
2023/05/09 02:14:29;;;;;;;15.20;13.50;;;;;;;15.76;87.16;99325.59;7338895;39;21297;31
2023/05/09 02:19:59;;;;;;;15.10;13.50;;;;;;;15.74;87.51;99329.56;7395073;39;20251;31
2023/05/09 02:25:31;;;;;;;16.30;12.57;;;;;;;15.77;87.98;99329.16;7441019;39;20256;31
2023/05/09 02:31:03;;;;;;;13.90;12.50;;;;;;;15.90;87.48;99321.09;7404466;39;20353;31
2023/05/09 02:36:37;;;;;;;13.90;12.50;;;;;;;15.97;87.21;99332.03;7441553;39;21207;31
2023/05/09 02:41:54;;;;;;;14.85;13.25;;;;;;;16.03;86.80;99331.22;7419613;39;20270;31
2023/05/09 02:47:27;;;;;;;15.97;13.70;;;;;;;15.93;86.58;99326.12;7440746;39;21173;31
2023/05/09 02:53:03;;;;;;;14.30;12.80;;;;;;;15.89;86.97;99326.72;7357620;39;21358;31
2023/05/09 02:58:23;;;;;;;16.20;13.27;;;;;;;15.96;86.62;99314.87;7368917;39;21290;31
2023/05/09 03:03:40;;;;;;;16.50;12.50;;;;;;;15.99;86.86;99319.06;7420832;39;20275;31
2023/05/09 03:09:10;;;;;;;15.00;12.33;;;;;;;15.95;86.62;99306.91;7387007;39;20381;31
2023/05/09 03:14:27;;;;;;;14.90;11.90;;;;;;;15.89;86.22;99311.25;7352139;39;21258;31
2023/05/09 03:20:04;;;;;;;15.37;12.23;;;;;;;15.78;86.28;99298.22;7399642;39;20331;31
2023/05/09 03:25:34;;;;;;;14.50;12.60;;;;;;;15.84;85.98;99302.84;7383649;39;20240;31
2023/05/09 03:36:10;;;;;;;13.87;12.47;;;;;;;15.74;85.83;99294.22;7399704;39;20266;31
2023/05/09 03:46:45;;;;;;;15.90;12.40;;;;;;;15.69;86.10;99274.94;7477292;38;20443;31
2023/05/09 03:57:06;;;;;;;13.87;11.73;;;;;;;15.62;85.63;99265.94;7462212;39;20292;31
2023/05/09 04:02:39;;;;;;;12.90;11.50;;;;;;;15.39;86.31;99263.41;7467340;39;20261;31
2023/05/09 04:08:11;;;;;;;12.33;11.10;;;;;;;15.41;86.04;99279.47;7462576;39;20399;31
2023/05/09 04:18:46;;;;;;;12.80;11.40;;;;;;;15.33;86.27;99281.31;7440253;39;20274;31
2023/05/09 04:29:26;;;;;;;14.57;11.73;;;;;;;15.45;86.16;99283.47;7457076;38;20241;31
2023/05/09 04:35:03;;;;;;;10.70;9.67;;;;;;;15.40;86.46;99272.38;7471460;39;20259;31
2023/05/09 04:40:24;;;;;;;15.40;12.60;;;;;;;15.51;86.58;99277.31;7488846;39;20248;31
2023/05/09 04:45:54;;;;;;;15.20;13.60;;;;;;;15.53;86.34;99277.97;7463780;39;20324;31
2023/05/09 04:51:30;;;;;;;17.00;13.40;;;;;;;15.52;86.73;99265.41;7468330;39;20348;31
2023/05/09 04:56:47;;;;;;;17.65;15.50;;;;;;;15.61;86.66;99269.66;7444523;39;21432;31
2023/05/09 05:02:21;;;;;;;18.55;15.50;;;;;;;15.69;87.11;99258.66;7441380;39;20461;31
2023/05/09 05:07:53;;;;;;;16.37;14.60;;;;;;;15.83;86.92;99252.28;7374714;39;20264;31
2023/05/09 05:13:25;;;;;;;17.87;15.83;;;;;;;15.95;87.07;99241.69;7321793;39;20255;31
2023/05/09 05:18:42;;;;;;;18.07;15.80;;;;;;;16.04;88.17;99254.91;7379389;39;20272;31
2023/05/09 05:24:16;;;;;;;17.43;15.73;;;;;;;16.14;87.08;99247.25;7425885;39;21366;31
2023/05/09 05:29:47;;;;;;;17.57;15.63;;;;;;;16.26;86.89;99246.66;7458726;39;20258;31
2023/05/09 05:35:22;;;;;;;17.80;14.90;;;;;;;16.37;87.63;99248.78;7429562;39;21216;31
2023/05/09 05:45:56;;;;;;;16.77;13.80;;;;;;;16.53;87.05;99232.97;7443298;39;20289;31
2023/05/09 05:56:17;;;;;;;19.30;15.67;;;;;;;16.67;87.42;99250.22;7427544;39;20447;31
2023/05/09 06:06:53;;;;;;;17.37;15.57;;;;;;;16.66;88.02;99233.06;7469200;38;20261;31
2023/05/09 06:12:15;;;;;;;17.10;15.25;;;;;;;16.77;88.34;99228.03;7467254;39;20263;31
2023/05/09 06:17:46;;;;;;;18.13;16.13;;;;;;;16.79;87.64;99220.50;7464824;39;21476;31
2023/05/09 06:23:21;;;;;;;19.00;15.15;;;;;;;16.80;88.22;99217.59;7442248;39;20312;31
2023/05/09 06:28:37;;;;;;;15.43;13.50;;;;;;;16.85;87.63;99208.81;7440152;39;20412;31
2023/05/09 06:34:12;;;;;;;16.37;14.67;;;;;;;16.89;87.58;99201.91;7490498;38;20233;31
2023/05/09 06:39:50;;;;;;;19.32;14.64;;;;;;;16.94;87.33;99210.25;7532963;38;20252;31
2023/05/09 06:45:24;;;;;;;16.65;14.95;;;;;;;16.94;88.04;99199.38;7420834;39;20294;31
2023/05/09 06:50:45;;;;;;;16.30;14.60;;;;;;;16.93;88.69;99198.56;7381840;39;21382;31
2023/05/09 06:56:21;;;;;;;18.33;15.50;;;;;;;16.92;87.89;99196.88;7443424;39;21025;31
2023/05/09 07:01:54;;;;;;;17.13;14.90;;;;;;;16.94;87.83;99188.47;7426441;39;21390;31
2023/05/09 07:12:29;;;;;;;18.53;15.73;;;;;;;17.31;87.99;99160.63;7419151;39;20270;31
2023/05/09 07:17:51;;;;;;;16.65;14.75;;;;;;;17.40;87.05;99170.28;7356519;39;21263;31
2023/05/09 07:23:08;;;;;;;17.00;14.90;;;;;;;17.57;86.46;99155.16;7403142;39;21407;31
2023/05/09 07:28:41;;;;;;;15.70;14.00;;;;;;;17.63;86.80;99136.31;7443324;39;21429;31
2023/05/09 07:34:00;;;;;;;16.50;14.10;;;;;;;17.86;86.37;99133.91;7376798;39;20242;31
2023/05/09 07:39:20;;;;;;;15.10;13.60;;;;;;;18.28;84.72;99121.59;7390019;39;20334;31
2023/05/09 07:44:53;;;;;;;14.23;12.53;;;;;;;18.76;83.19;99128.25;7380129;39;20355;31
2023/05/09 07:50:15;;;;;;;12.90;11.50;;;;;;;18.75;81.98;99132.03;7387030;39;20255;31
2023/05/09 07:55:35;;;;;;;13.20;10.80;;;;;;;18.82;82.46;99119.16;7175733;39;20229;31
2023/05/09 08:01:13;;;;;;;13.27;11.47;;;;;;;18.74;81.82;99116.69;7435316;39;20242;31
2023/05/09 08:06:33;;;;;;;13.45;11.20;;;;;;;18.74;82.91;99104.94;7473833;38;20242;31
2023/05/09 08:11:52;;;;;;;14.13;12.00;;;;;;;18.90;81.61;99094.31;7488991;38;20473;31
2023/05/09 08:17:29;;;;;;;13.20;11.53;;;;;;;18.99;81.31;99083.94;7463266;39;20284;31
2023/05/09 08:23:01;;;;;;;12.40;11.10;;;;;;;19.00;80.71;99088.31;7407772;39;21911;31
2023/05/09 08:28:33;;;;;;;13.40;10.40;;;;;;;19.08;79.85;99081.78;7380598;39;20256;31
2023/05/09 08:34:09;;;;;;;13.60;12.30;;;;;;;19.30;80.55;99067.47;7336589;39;21932;31
2023/05/09 08:39:27;;;;;;;13.27;10.80;;;;;;;19.52;78.18;99062.44;7346758;39;21391;31
2023/05/09 08:44:59;;;;;;;13.25;11.30;;;;;;;19.52;79.11;99067.91;7365491;39;20251;31
2023/05/09 08:50:36;;;;;;;11.73;10.53;;;;;;;19.56;78.41;99055.44;7414026;39;20372;31
2023/05/09 08:56:13;;;;;;;14.25;11.05;;;;;;;19.64;76.84;99051.56;7469589;39;20258;31
2023/05/09 09:01:44;;;;;;;10.93;9.83;;;;;;;19.73;77.04;99048.28;7490944;38;21211;31
2023/05/09 09:07:20;;;;;;;12.33;10.60;;;;;;;19.95;76.98;99036.88;7449998;39;20254;31
2023/05/09 09:12:52;;;;;;;10.85;9.75;;;;;;;20.05;75.90;99031.69;7440280;39;20244;31
2023/05/09 09:18:24;;;;;;;9.13;8.30;;;;;;;19.80;75.83;99024.41;7446247;39;20239;31
2023/05/09 09:23:58;;;;;;;8.33;7.53;;;;;;;19.80;77.67;99018.94;7422860;39;21260;31
2023/05/09 09:29:30;;;;;;;7.28;6.28;;;;;;;19.95;77.83;99014.97;7421657;39;21309;31
2023/05/09 09:35:01;;;;;;;6.95;6.30;;;;;;;20.04;76.28;99008.13;7406585;39;21196;31
2023/05/09 09:40:38;;;;;;;6.37;5.60;;;;;;;20.25;75.70;98996.63;7421965;39;20243;31
2023/05/09 09:46:08;;;;;;;7.40;5.87;;;;;;;20.29;74.42;98986.87;7400283;39;20430;31
2023/05/09 09:51:28;;;;;;;5.80;5.30;;;;;;;20.10;75.67;98988.00;7338929;39;20239;31
2023/05/09 09:57:03;;;;;;;7.60;5.80;;;;;;;19.88;74.81;98982.22;7338442;39;20240;31
2023/05/09 10:02:34;;;;;;;6.25;5.65;;;;;;;19.64;76.62;98975.00;7342798;39;21215;31
2023/05/09 10:08:21;;;;;;;5.97;5.47;;;;;;;19.69;76.48;98966.94;7370374;39;21316;31
2023/05/09 10:18:58;;;;;;;5.70;5.10;;;;;;;19.98;76.00;98948.84;7399380;39;20403;31
2023/05/09 10:24:30;;;;;;;7.05;5.37;;;;;;;20.00;75.26;98938.50;7407790;39;22101;31
2023/05/09 10:30:06;;;;;;;6.10;5.30;;;;;;;20.04;74.48;98929.59;7432692;39;21168;31
2023/05/09 10:35:43;;;;;;;6.43;5.83;;;;;;;20.18;74.76;98917.34;7419070;39;21897;31
2023/05/09 10:46:18;;;;;;;7.10;6.47;;;;;;;20.39;74.63;98890.53;7444018;39;21339;31
2023/05/09 10:51:51;;;;;;;7.80;6.60;;;;;;;20.41;74.41;98888.37;7416768;39;20269;31
2023/05/09 10:57:23;;;;;;;7.00;6.30;;;;;;;20.42;74.51;98884.56;7421253;39;20337;31
2023/05/09 11:02:40;;;;;;;6.30;5.80;;;;;;;20.60;74.59;98878.97;7400505;39;20271;31
2023/05/09 11:08:36;;;;;;;7.80;6.60;;;;;;;20.56;74.46;98864.09;7407926;39;21267;31
2023/05/09 11:14:08;;;;;;;9.95;7.40;;;;;;;20.43;74.22;98856.97;7406709;39;21995;31
2023/05/09 11:24:47;;;;;;;8.80;7.90;;;;;;;20.25;75.37;98846.09;7459448;39;20262;31
2023/05/09 11:35:27;;;;;;;9.53;8.53;;;;;;;20.13;76.96;98845.25;7517981;38;20265;31
2023/05/09 11:41:00;;;;;;;9.40;8.48;;;;;;;19.98;78.00;98833.91;7437369;39;21935;31
2023/05/09 11:46:17;;;;;;;9.35;8.40;;;;;;;20.03;78.60;98828.56;7356564;39;20375;31
2023/05/09 11:51:47;;;;;;;10.07;9.07;;;;;;;20.06;78.01;98817.16;7379457;39;21241;31
2023/05/09 11:57:23;;;;;;;8.70;7.80;;;;;;;20.20;78.00;98810.38;7402039;39;20269;31
2023/05/09 12:02:58;;;;;;;8.20;7.50;;;;;;;20.52;77.10;98791.72;7374500;39;20258;31
2023/05/09 12:08:30;;;;;;;8.43;7.53;;;;;;;20.59;76.60;98779.53;7379120;39;21896;31
2023/05/09 12:14:04;;;;;;;9.00;7.30;;;;;;;20.58;76.44;98769.66;7339403;39;20271;31
2023/05/09 12:19:50;;;;;;;8.20;7.27;;;;;;;20.85;74.72;98772.69;7357557;39;22014;31
2023/05/09 12:30:31;;;;;;;7.33;6.63;;;;;;;20.79;73.79;98748.19;7377944;39;20263;31
2023/05/09 12:41:14;;;;;;;7.43;6.63;;;;;;;20.54;74.43;98743.81;7429934;39;21642;31
2023/05/09 12:46:47;;;;;;;8.93;8.13;;;;;;;20.43;74.65;98728.28;7421281;39;20266;31
2023/05/09 12:52:20;;;;;;;10.23;9.27;;;;;;;20.33;75.69;98728.03;7384940;39;20247;31
2023/05/09 12:57:54;;;;;;;8.57;7.77;;;;;;;20.33;75.70;98727.22;7402261;39;20350;31
2023/05/09 13:03:37;;;;;;;12.40;11.30;;;;;;;20.17;77.52;98718.66;7401588;39;20242;31
2023/05/09 13:09:13;;;;;;;12.00;10.80;;;;;;;20.07;78.79;98709.38;7403560;39;20239;31
2023/05/09 13:14:45;;;;;;;11.00;10.00;;;;;;;19.97;80.16;98709.12;7399819;39;21249;31
2023/05/09 13:20:20;;;;;;;9.17;8.33;;;;;;;19.86;79.09;98702.59;7379356;39;20348;31
2023/05/09 13:25:51;;;;;;;10.87;9.20;;;;;;;19.70;79.60;98701.41;7378628;39;20240;31
2023/05/09 13:31:26;;;;;;;9.70;8.77;;;;;;;19.61;81.36;98700.13;7407205;39;21279;31
2023/05/09 13:36:59;;;;;;;7.20;5.20;;;;;;;19.49;80.13;98691.03;7400455;39;20258;31
2023/05/09 13:42:17;;;;;;;4.73;4.33;;;;;;;19.37;79.74;98676.50;7408605;39;21883;31
2023/05/09 13:47:48;;;;;;;5.65;4.10;;;;;;;19.22;80.30;98662.44;7443388;39;20337;31
2023/05/09 13:53:20;;;;;;;4.30;3.80;;;;;;;19.16;80.98;98660.69;7379608;39;21992;31
2023/05/09 13:58:37;;;;;;;4.60;4.20;;;;;;;19.38;81.33;98642.66;7352633;39;21812;31
2023/05/09 14:09:18;;;;;;;6.25;4.60;;;;;;;19.74;81.34;98638.88;7412119;39;20270;31
2023/05/09 14:14:50;;;;;;;4.37;3.97;;;;;;;19.79;80.74;98617.09;7448609;39;21296;31
2023/05/09 14:20:21;;;;;;;7.70;6.60;;;;;;;19.86;81.50;98611.50;7463673;39;21233;31
2023/05/09 14:31:00;;;;;;;10.20;8.80;;;;;;;19.78;80.88;98605.34;7447815;39;20269;31
2023/05/09 14:41:21;;;;;;;8.90;8.10;;;;;;;20.00;82.43;98585.56;7398495;39;20255;31
2023/05/09 14:46:55;;;;;;;10.10;9.20;;;;;;;19.99;83.17;98572.94;7177543;39;20232;31
2023/05/09 14:52:09;;;;;;;10.60;9.07;;;;;;;19.90;83.60;98572.50;7437511;39;20367;31
2023/05/09 14:57:27;;;;;;;9.40;8.45;;;;;;;19.96;83.88;98559.75;7398774;39;21936;31
2023/05/09 15:02:58;;;;;;;9.10;8.27;;;;;;;19.92;83.51;98556.66;7378607;39;21251;31
2023/05/09 15:08:33;;;;;;;9.50;7.70;;;;;;;19.95;82.77;98550.72;7367449;39;20251;31
2023/05/09 15:14:05;;;;;;;8.60;7.80;;;;;;;19.96;82.17;98537.87;7378944;39;20236;31
2023/05/09 15:19:38;;;;;;;10.13;7.57;;;;;;;19.96;81.84;98535.13;7355773;39;21817;31
2023/05/09 15:29:59;;;;;;;8.97;7.30;;;;;;;20.08;82.62;98536.75;7358774;39;20280;31
2023/05/09 15:40:37;;;;;;;8.07;7.23;;;;;;;20.11;81.74;98519.84;7435135;39;20262;31
2023/05/09 15:51:01;;;;;;;9.50;7.60;;;;;;;20.09;82.92;98518.44;7467395;39;20330;31
2023/05/09 15:56:37;;;;;;;8.23;7.43;;;;;;;20.01;81.81;98513.34;7489650;38;20238;31
2023/05/09 16:02:08;;;;;;;6.97;6.37;;;;;;;19.99;83.29;98513.59;7421351;39;20235;31
2023/05/09 16:07:40;;;;;;;6.75;6.15;;;;;;;19.95;82.79;98506.09;7358711;39;20315;31
2023/05/09 16:13:16;;;;;;;8.70;7.20;;;;;;;19.96;83.50;98500.41;7357812;39;20259;31
2023/05/09 16:18:34;;;;;;;7.07;6.47;;;;;;;20.05;82.55;98493.44;7358760;39;21253;31
2023/05/09 16:24:06;;;;;;;7.10;6.33;;;;;;;19.97;82.48;98487.53;7405472;39;20273;31
2023/05/09 16:29:42;;;;;;;7.80;6.70;;;;;;;19.92;82.94;98490.19;7396755;39;20259;31
2023/05/09 16:35:14;;;;;;;6.80;6.10;;;;;;;19.80;84.42;98480.09;7379968;39;20235;31
2023/05/09 16:40:49;;;;;;;6.22;5.60;;;;;;;19.73;84.37;98484.91;7356999;39;20255;31
2023/05/09 16:51:26;;;;;;;13.05;6.95;;;;;;;19.47;84.25;98490.91;7392939;39;20278;31
2023/05/09 16:56:59;;;;;;;7.03;5.30;;;;;;;19.13;84.18;98492.56;7429801;39;21262;31
2023/05/09 17:02:31;;;;;;;5.75;3.10;;;;;;;18.93;84.58;98494.84;7455502;38;20254;31
2023/05/09 17:08:04;;;;;;;3.85;3.40;;;;;;;18.81;83.90;98497.59;7444829;39;20432;31
2023/05/09 17:13:21;;;;;;;2.60;2.40;;;;;;;18.70;83.66;98498.38;7409212;39;20251;31
2023/05/09 17:18:44;;;;;;;2.70;2.40;;;;;;;18.54;83.18;98503.72;7444446;39;21415;31
2023/05/09 17:24:13;;;;;;;2.87;2.60;;;;;;;18.35;84.62;98498.28;7459514;38;21246;31
2023/05/09 17:29:30;;;;;;;2.27;2.07;;;;;;;18.32;84.33;98503.41;7408455;39;20411;31
2023/05/09 17:34:48;;;;;;;3.12;2.30;;;;;;;18.11;84.36;98504.75;7444425;39;21193;31
2023/05/09 17:40:22;;;;;;;3.25;2.30;;;;;;;18.06;85.61;98492.87;7419294;39;20269;31
2023/05/09 17:45:43;;;;;;;3.97;2.50;;;;;;;18.09;84.67;98482.31;7394938;39;21223;31
2023/05/09 17:51:00;;;;;;;4.00;2.40;;;;;;;18.11;85.38;98482.94;7400985;39;21202;31
2023/05/09 17:56:33;;;;;;;2.60;2.40;;;;;;;17.96;85.25;98485.25;7357048;39;21237;31
2023/05/09 18:01:52;;;;;;;2.60;2.00;;;;;;;17.82;85.60;98498.22;7302833;39;21927;31
2023/05/09 18:12:32;;;;;;;1.93;1.73;;;;;;;17.52;84.13;98492.72;7398019;39;20519;31
2023/05/09 18:23:06;;;;;;;3.00;1.70;;;;;;;17.39;84.49;98494.75;7444250;39;20257;31
2023/05/09 18:33:46;;;;;;;2.90;1.80;;;;;;;17.32;85.37;98494.84;7442446;39;20305;31
2023/05/09 18:44:10;;;;;;;2.13;1.80;;;;;;;17.10;85.36;98488.19;7508856;38;21071;31
2023/05/09 18:49:31;;;;;;;2.17;1.90;;;;;;;17.12;86.19;98495.06;7444292;39;21208;31
2023/05/09 18:55:01;;;;;;;1.65;1.55;;;;;;;17.09;85.69;98489.22;7421869;39;20244;31
2023/05/09 19:00:20;;;;;;;3.20;1.70;;;;;;;17.11;85.39;98496.09;7422126;39;21502;31
2023/05/09 19:10:58;;;;;;;2.03;1.50;;;;;;;16.98;85.72;98488.06;7452514;38;20295;31
2023/05/09 19:16:35;;;;;;;1.90;1.60;;;;;;;16.99;85.66;98472.56;7449146;39;20241;31
2023/05/09 19:21:53;;;;;;;2.30;1.50;;;;;;;16.96;85.40;98487.47;7377376;39;21235;31
2023/05/09 19:27:23;;;;;;;2.23;1.60;;;;;;;16.78;85.31;98476.56;7400768;39;20302;31
2023/05/09 19:32:41;;;;;;;3.40;1.80;;;;;;;16.86;85.97;98473.53;7438802;39;20290;31
2023/05/09 19:37:58;;;;;;;3.00;2.00;;;;;;;16.96;85.75;98482.03;7452878;38;21335;31
2023/05/09 19:43:31;;;;;;;1.90;1.60;;;;;;;16.98;86.45;98482.63;7486608;39;21312;31
2023/05/09 19:48:52;;;;;;;2.65;1.70;;;;;;;17.03;85.96;98488.22;7420944;39;20298;31
2023/05/09 19:54:26;;;;;;;2.10;1.90;;;;;;;17.08;85.79;98477.50;7378081;39;20395;31
2023/05/09 20:00:00;;;;;;;2.63;1.77;;;;;;;17.10;85.30;98469.97;7358751;39;20621;31
2023/05/09 20:05:17;;;;;;;5.80;2.00;;;;;;;17.06;86.24;98476.91;7352962;39;21967;31
2023/05/09 20:10:38;;;;;;;4.70;1.60;;;;;;;17.09;85.92;98481.91;7405614;39;21249;31
2023/05/09 20:16:14;;;;;;;4.00;1.90;;;;;;;16.98;85.30;98473.66;7441924;39;21263;31
2023/05/09 20:21:49;;;;;;;3.80;1.80;;;;;;;16.75;86.39;98471.56;7480992;38;20225;31
2023/05/09 20:27:25;;;;;;;2.40;1.70;;;;;;;16.69;87.14;98472.44;7438432;39;21984;31
2023/05/09 20:33:01;;;;;;;1.75;1.60;;;;;;;16.57;86.28;98480.53;7446712;39;20350;31
2023/05/09 20:38:19;;;;;;;1.60;1.40;;;;;;;16.43;88.06;98476.22;7422507;39;20357;31
2023/05/09 20:43:39;;;;;;;2.65;1.40;;;;;;;16.37;87.66;98476.25;7430606;39;21404;31
2023/05/09 20:49:14;;;;;;;1.95;1.50;;;;;;;16.24;88.24;98486.19;7465359;39;21418;31
2023/05/09 20:54:34;;;;;;;2.40;1.20;;;;;;;16.35;88.17;98481.94;7407968;39;21360;31
2023/05/09 20:59:52;;;;;;;1.30;1.20;;;;;;;16.35;87.64;98473.78;7417157;39;21921;31
2023/05/09 21:10:30;;;;;;;0.87;0.87;;;;;;;16.36;86.97;98471.88;7382724;39;20417;31
2023/05/09 21:20:54;;;;;;;1.45;1.00;;;;;;;16.36;85.94;98485.47;7466624;38;20256;31
2023/05/09 21:31:35;;;;;;;0.83;0.83;;;;;;;16.27;85.82;98500.41;7453488;39;20363;31
2023/05/09 21:42:11;;;;;;;0.70;0.70;;;;;;;16.14;85.87;98502.16;7481326;39;20273;31
2023/05/09 21:52:49;;;;;;;1.20;0.80;;;;;;;16.10;84.75;98503.62;7403117;39;20346;31
2023/05/09 21:58:06;;;;;;;0.70;0.70;;;;;;;16.09;85.26;98509.31;7400246;39;20358;31
2023/05/09 22:03:27;;;;;;;0.60;0.60;;;;;;;16.00;85.61;98506.00;7417445;39;21298;31
2023/05/09 22:09:04;;;;;;;0.70;0.70;;;;;;;16.03;85.52;98510.16;7466762;39;20240;31
2023/05/09 22:14:24;;;;;;;0.70;0.70;;;;;;;15.97;85.62;98511.88;7495302;38;20249;31
2023/05/09 22:19:41;;;;;;;2.10;0.63;;;;;;;15.87;84.92;98519.69;7423122;39;20349;31
2023/05/09 22:25:17;;;;;;;0.80;0.80;;;;;;;15.81;85.09;98512.38;7281909;39;20229;31
2023/05/09 22:30:35;;;;;;;0.70;0.70;;;;;;;15.84;86.14;98514.66;7433086;39;20243;31
2023/05/09 22:35:51;;;;;;;0.67;0.67;;;;;;;15.88;85.92;98518.62;7398860;39;20238;31
2023/05/09 22:41:24;;;;;;;0.90;0.70;;;;;;;15.80;85.73;98518.06;7384618;39;20273;31
2023/05/09 22:46:44;;;;;;;1.00;0.90;;;;;;;15.86;85.58;98525.31;7400239;39;21296;31
2023/05/09 22:52:05;;;;;;;1.30;1.10;;;;;;;15.86;85.11;98536.19;7395107;39;21214;31
2023/05/09 22:57:41;;;;;;;0.70;0.70;;;;;;;15.79;85.72;98533.53;7443620;39;20244;31
2023/05/09 23:03:01;;;;;;;0.77;0.77;;;;;;;15.77;84.85;98538.31;7449760;39;20374;31
2023/05/09 23:08:32;;;;;;;1.05;0.70;;;;;;;15.71;84.97;98539.16;7421937;39;20252;31
2023/05/09 23:14:05;;;;;;;0.80;0.80;;;;;;;15.59;84.76;98543.63;7383693;39;22081;31
2023/05/09 23:19:40;;;;;;;1.00;0.95;;;;;;;15.54;85.35;98549.69;7399099;39;20254;31
2023/05/09 23:25:00;;;;;;;0.70;0.70;;;;;;;15.53;85.50;98558.91;7346650;39;20492;31
2023/05/09 23:30:33;;;;;;;1.67;1.00;;;;;;;15.45;85.37;98550.09;7306664;39;20351;31
2023/05/09 23:35:53;;;;;;;0.90;0.90;;;;;;;15.54;85.07;98552.41;7338763;39;22042;31
2023/05/09 23:46:31;;;;;;;0.95;0.80;;;;;;;15.31;84.96;98533.03;7358291;39;20295;31
2023/05/09 23:57:07;;;;;;;1.25;0.85;;;;;;;15.22;85.22;98551.44;7397173;39;20282;31
